Time;durP1;ratioP1;P1;durP2;ratioP2;P2;SDS_P1;SDS_P2;PMS_P1;PMS_P2;Temp;Humidity;BMP_temperature;BMP_pressure;BME280_temperature;BME280_humidity;BME280_pressure;Samples;Min_cycle;Max_cycle;Signal;HPM_P1;HPM_P2
2021/04/09 00:00:08;;;;;;;10.45;5.30;;;2.30;58.80;;;;;;5057708;28;20029;-86
2021/04/09 00:02:34;;;;;;;9.75;5.07;;;2.30;58.80;;;;;;5057324;28;20029;-86
2021/04/09 00:04:59;;;;;;;8.93;4.38;;;2.30;58.80;;;;;;5057691;28;20040;-86
2021/04/09 00:07:25;;;;;;;9.98;5.15;;;2.30;58.90;;;;;;5074475;28;20028;-87
2021/04/09 00:09:50;;;;;;;11.20;4.97;;;2.30;58.90;;;;;;5075290;28;20063;-86
2021/04/09 00:12:16;;;;;;;9.32;5.05;;;2.20;58.90;;;;;;5057118;28;20096;-86
2021/04/09 00:14:42;;;;;;;8.18;5.03;;;2.20;58.90;;;;;;5057436;28;20036;-85
2021/04/09 00:17:08;;;;;;;8.45;4.60;;;2.20;59.10;;;;;;5048389;28;20057;-86
2021/04/09 00:19:34;;;;;;;8.48;4.38;;;2.20;59.10;;;;;;5037481;28;20121;-86
2021/04/09 00:21:59;;;;;;;11.15;5.10;;;2.20;59.10;;;;;;5042326;28;20032;-86
2021/04/09 00:24:26;;;;;;;8.93;5.00;;;2.10;59.10;;;;;;5037237;28;20010;-86
2021/04/09 00:26:53;;;;;;;12.30;4.55;;;2.10;59.10;;;;;;5054879;28;20063;-86
2021/04/09 00:29:19;;;;;;;7.32;4.78;;;2.10;59.20;;;;;;5057183;28;20017;-86
2021/04/09 00:31:45;;;;;;;9.10;4.68;;;2.10;59.20;;;;;;5050344;28;20051;-86
2021/04/09 00:34:11;;;;;;;7.72;4.75;;;2.00;59.30;;;;;;5056194;28;20032;-86
2021/04/09 00:36:37;;;;;;;8.55;4.63;;;2.00;59.30;;;;;;5038255;28;20038;-86
2021/04/09 00:39:05;;;;;;;8.32;4.90;;;2.00;59.40;;;;;;5045667;28;20021;-86
2021/04/09 00:41:31;;;;;;;8.70;4.82;;;2.00;59.50;;;;;;5054234;28;20081;-86
2021/04/09 00:43:56;;;;;;;10.75;5.07;;;2.00;59.50;;;;;;5066998;28;20033;-86
2021/04/09 00:46:23;;;;;;;8.80;5.00;;;2.00;59.50;;;;;;5034983;28;20061;-86
2021/04/09 00:48:49;;;;;;;9.50;4.65;;;2.00;59.50;;;;;;5021712;28;20235;-86
2021/04/09 00:51:16;;;;;;;6.00;4.55;;;2.00;59.50;;;;;;5021102;28;20106;-86
2021/04/09 00:53:43;;;;;;;9.90;4.40;;;2.00;59.50;;;;;;5021286;28;20018;-86
2021/04/09 00:56:12;;;;;;;10.02;5.05;;;2.00;59.50;;;;;;5040738;28;20021;-86
2021/04/09 00:58:38;;;;;;;8.88;5.38;;;2.00;59.60;;;;;;5041368;28;20033;-86
2021/04/09 01:01:04;;;;;;;7.38;4.63;;;2.00;59.60;;;;;;5039934;28;20135;-87
2021/04/09 01:03:31;;;;;;;12.45;5.47;;;1.90;59.60;;;;;;5040093;28;20364;-86
2021/04/09 01:05:56;;;;;;;9.00;4.75;;;1.90;59.70;;;;;;5035425;28;20021;-86
2021/04/09 01:08:22;;;;;;;8.07;4.85;;;1.90;59.70;;;;;;5026261;28;20552;-86
2021/04/09 01:10:48;;;;;;;8.48;4.20;;;1.90;59.70;;;;;;5041450;28;20255;-86
2021/04/09 01:13:13;;;;;;;8.35;4.75;;;1.90;59.70;;;;;;5037024;28;20021;-86
2021/04/09 01:15:39;;;;;;;9.68;4.75;;;1.80;59.70;;;;;;5022603;28;20040;-86
2021/04/09 01:18:08;;;;;;;8.10;4.78;;;1.80;59.70;;;;;;5021256;28;20021;-86
2021/04/09 01:21:01;;;;;;;13.18;4.88;;;1.80;59.80;;;;;;5021820;28;20029;-87
2021/04/09 01:23:42;;;;;;;8.77;4.38;;;1.70;59.90;;;;;;5022690;28;20116;-87
2021/04/09 01:26:10;;;;;;;7.28;4.30;;;1.70;59.90;;;;;;5025913;28;20005;-86
2021/04/09 01:28:50;;;;;;;8.30;5.07;;;1.70;60.00;;;;;;5041049;28;20033;-86
2021/04/09 01:31:32;;;;;;;8.05;4.70;;;1.70;59.90;;;;;;5054527;28;20098;-86
2021/04/09 01:34:00;;;;;;;6.83;4.80;;;1.60;59.90;;;;;;5058295;28;20100;-86
2021/04/09 01:36:32;;;;;;;8.93;5.00;;;1.50;59.80;;;;;;5058035;28;20021;-86
2021/04/09 01:39:25;;;;;;;7.43;4.50;;;1.50;60.10;;;;;;5051459;28;20079;-86
2021/04/09 01:41:53;;;;;;;6.82;4.10;;;1.40;60.20;;;;;;5060394;28;20092;-86
2021/04/09 01:44:23;;;;;;;8.40;5.20;;;1.40;60.30;;;;;;5060752;28;20009;-86
2021/04/09 01:46:52;;;;;;;8.63;4.38;;;1.40;60.30;;;;;;5070873;28;20001;-86
2021/04/09 01:49:19;;;;;;;7.75;4.53;;;1.40;60.30;;;;;;5031113;28;20117;-87
2021/04/09 01:51:47;;;;;;;10.55;5.15;;;1.40;60.40;;;;;;5020471;28;20052;-86
2021/04/09 01:54:14;;;;;;;8.65;4.70;;;1.40;60.50;;;;;;5018592;28;20057;-87
2021/04/09 01:56:40;;;;;;;8.05;4.50;;;1.40;60.50;;;;;;5061687;28;20376;-86
2021/04/09 01:59:07;;;;;;;8.27;4.57;;;1.40;60.60;;;;;;5035475;28;20039;-86
2021/04/09 02:01:35;;;;;;;7.30;4.50;;;1.40;60.50;;;;;;5039454;28;20029;-87
2021/04/09 02:04:02;;;;;;;6.65;4.55;;;1.40;60.50;;;;;;5029439;28;20025;-86
2021/04/09 02:06:28;;;;;;;9.85;4.93;;;1.40;60.50;;;;;;5027131;28;20112;-87
2021/04/09 02:08:56;;;;;;;7.30;4.78;;;1.30;60.50;;;;;;5043864;28;20129;-86
2021/04/09 02:11:23;;;;;;;7.43;4.93;;;1.30;60.60;;;;;;5024720;28;20116;-86
2021/04/09 02:13:50;;;;;;;10.38;4.88;;;1.30;61.00;;;;;;5019047;28;20447;-87
2021/04/09 02:16:17;;;;;;;11.02;4.53;;;1.20;60.50;;;;;;5020325;28;20503;-86
2021/04/09 02:18:43;;;;;;;12.40;5.43;;;1.20;60.80;;;;;;5039330;28;20029;-86
2021/04/09 02:21:09;;;;;;;8.45;5.20;;;1.10;60.70;;;;;;5039772;28;20025;-86
2021/04/09 02:23:36;;;;;;;9.85;4.85;;;1.10;60.80;;;;;;5020816;28;20498;-85
2021/04/09 02:26:03;;;;;;;7.57;5.13;;;1.10;61.00;;;;;;5025176;28;20215;-86
2021/04/09 02:28:29;;;;;;;9.20;4.72;;;1.10;61.70;;;;;;5056072;28;20032;-86
2021/04/09 02:31:03;;;;;;;7.35;4.75;;;1.10;61.30;;;;;;5057719;28;20446;-87
2021/04/09 02:33:35;;;;;;;7.28;4.75;;;1.10;61.20;;;;;;5021596;28;20044;-86
2021/04/09 02:36:18;;;;;;;8.98;5.22;;;1.10;61.20;;;;;;5019927;28;20026;-86
2021/04/09 02:38:47;;;;;;;;;;;1.00;61.20;;;;;;5024616;28;20112;-86
2021/04/09 02:41:15;;;;;;;11.32;4.85;;;1.00;60.80;;;;;;5037876;28;19913;-86
2021/04/09 02:43:42;;;;;;;6.43;4.45;;;1.00;60.90;;;;;;5021409;28;20014;-86
2021/04/09 02:46:11;;;;;;;8.50;4.85;;;0.90;61.10;;;;;;5020877;28;20041;-85
2021/04/09 02:48:44;;;;;;;7.30;4.55;;;0.90;61.30;;;;;;5037845;28;20029;-86
2021/04/09 02:51:09;;;;;;;;;;;0.80;61.30;;;;;;5038470;28;20044;-86
2021/04/09 02:53:38;;;;;;;7.85;4.85;;;0.80;60.90;;;;;;5038298;28;19912;-87
2021/04/09 02:56:06;;;;;;;11.05;5.43;;;0.80;61.10;;;;;;5046265;28;20017;-86
2021/04/09 02:58:34;;;;;;;11.00;5.28;;;0.80;61.40;;;;;;5053840;28;20157;-86
2021/04/09 03:01:01;;;;;;;8.45;5.03;;;0.80;61.60;;;;;;5041320;28;20037;-86
2021/04/09 03:03:27;;;;;;;8.25;4.80;;;0.80;61.60;;;;;;5037951;28;20033;-86
2021/04/09 03:05:53;;;;;;;9.73;5.32;;;0.80;61.60;;;;;;5029040;28;20041;-86
2021/04/09 03:08:20;;;;;;;7.35;4.78;;;0.80;61.50;;;;;;5046364;28;20029;-86
2021/04/09 03:10:46;;;;;;;10.32;5.05;;;0.90;61.50;;;;;;5037906;28;20028;-86
2021/04/09 03:13:12;;;;;;;7.28;5.07;;;0.80;61.60;;;;;;5056004;28;20035;-86
2021/04/09 03:15:44;;;;;;;8.60;4.45;;;0.90;61.70;;;;;;5031835;28;20053;-86
2021/04/09 03:18:13;;;;;;;8.00;4.90;;;0.90;61.70;;;;;;5018479;28;20029;-86
2021/04/09 03:20:40;;;;;;;8.40;4.30;;;0.90;61.70;;;;;;5024426;28;20275;-86
2021/04/09 03:23:07;;;;;;;8.00;4.68;;;1.00;61.70;;;;;;5036558;28;20434;-86
2021/04/09 03:25:33;;;;;;;8.55;5.25;;;1.00;61.70;;;;;;5018068;28;20116;-86
2021/04/09 03:27:59;;;;;;;8.52;4.88;;;1.00;61.60;;;;;;5018767;28;20116;-86
2021/04/09 03:30:25;;;;;;;8.77;5.13;;;1.00;61.50;;;;;;5019890;28;20041;-86
2021/04/09 03:32:51;;;;;;;8.02;4.80;;;1.00;61.50;;;;;;5037968;28;20467;-86
2021/04/09 03:35:20;;;;;;;10.27;5.03;;;0.90;61.50;;;;;;5036676;28;20032;-86
2021/04/09 03:37:46;;;;;;;9.45;5.47;;;0.90;61.80;;;;;;5018748;28;20033;-86
2021/04/09 03:40:13;;;;;;;11.63;5.07;;;0.90;61.80;;;;;;5020401;28;20087;-86
2021/04/09 03:42:38;;;;;;;9.80;4.78;;;0.90;61.90;;;;;;5037440;28;20020;-86
2021/04/09 03:45:05;;;;;;;7.97;4.95;;;0.90;61.80;;;;;;5037600;28;20021;-86
2021/04/09 03:47:31;;;;;;;8.48;4.93;;;0.90;61.90;;;;;;5018912;28;20052;-86
2021/04/09 03:49:57;;;;;;;9.60;5.18;;;1.00;61.80;;;;;;5018301;28;20509;-86
2021/04/09 03:52:24;;;;;;;7.68;4.78;;;0.90;61.80;;;;;;5052913;28;20060;-86
2021/04/09 03:54:49;;;;;;;7.63;4.60;;;0.90;61.80;;;;;;5036308;28;20032;-86
2021/04/09 03:57:15;;;;;;;9.10;5.20;;;0.90;61.80;;;;;;5038389;28;20120;-85
2021/04/09 03:59:41;;;;;;;9.60;5.32;;;0.90;61.80;;;;;;5042430;28;20032;-85
2021/04/09 04:02:07;;;;;;;9.00;4.90;;;0.90;61.90;;;;;;5036914;28;20537;-85
2021/04/09 04:04:33;;;;;;;10.38;5.28;;;0.90;61.90;;;;;;5035948;28;20021;-85
2021/04/09 04:06:58;;;;;;;8.40;5.30;;;0.90;61.90;;;;;;5037803;28;20430;-86
2021/04/09 04:09:24;;;;;;;8.50;5.07;;;0.90;62.00;;;;;;5031184;28;20025;-86
2021/04/09 04:11:49;;;;;;;7.88;5.40;;;0.80;62.00;;;;;;5018072;28;20032;-86
2021/04/09 04:14:15;;;;;;;8.45;5.45;;;0.80;62.00;;;;;;5036108;28;20101;-86
2021/04/09 04:16:41;;;;;;;6.72;4.90;;;0.80;62.00;;;;;;5018014;28;20021;-86
2021/04/09 04:19:06;;;;;;;9.30;5.38;;;0.80;62.10;;;;;;5056055;28;20039;-86
2021/04/09 04:21:32;;;;;;;9.60;5.55;;;0.80;62.10;;;;;;5021929;28;20033;-85
2021/04/09 04:23:58;;;;;;;10.63;5.35;;;0.80;62.20;;;;;;5022670;28;20021;-85
2021/04/09 04:26:23;;;;;;;11.45;5.28;;;0.80;62.20;;;;;;5022176;28;20072;-85
2021/04/09 04:28:49;;;;;;;9.50;5.38;;;0.80;62.20;;;;;;5022142;28;20045;-85
2021/04/09 04:31:14;;;;;;;12.05;5.32;;;0.80;62.20;;;;;;5041228;28;20048;-85
2021/04/09 04:33:40;;;;;;;12.98;5.43;;;0.80;62.20;;;;;;5060854;28;20036;-85
2021/04/09 04:36:06;;;;;;;6.78;4.65;;;0.80;62.40;;;;;;5023158;28;20507;-85
2021/04/09 04:38:32;;;;;;;11.55;5.05;;;0.90;62.50;;;;;;5021219;28;20033;-85
2021/04/09 04:40:58;;;;;;;11.27;5.15;;;0.90;62.50;;;;;;5046554;28;20119;-84
2021/04/09 04:43:24;;;;;;;10.70;5.50;;;1.00;62.50;;;;;;5054733;28;20078;-85
2021/04/09 04:45:50;;;;;;;12.07;6.88;;;1.00;62.50;;;;;;5030777;28;20057;-85
2021/04/09 04:48:16;;;;;;;10.95;6.68;;;1.00;62.30;;;;;;5020749;28;20069;-85
2021/04/09 04:50:41;;;;;;;9.70;5.88;;;1.00;62.20;;;;;;5038426;28;20559;-85
2021/04/09 04:53:07;;;;;;;10.80;6.50;;;1.00;62.30;;;;;;5050097;28;20025;-85
2021/04/09 04:55:33;;;;;;;13.43;7.15;;;1.00;62.30;;;;;;5036101;28;20017;-85
2021/04/09 04:57:58;;;;;;;10.95;6.50;;;1.00;62.30;;;;;;5085147;22;20482;-86
2021/04/09 05:00:25;;;;;;;11.45;6.40;;;1.00;62.40;;;;;;5082082;28;20020;-86
2021/04/09 05:02:51;;;;;;;10.02;6.43;;;1.00;62.50;;;;;;5064731;28;20123;-86
2021/04/09 05:05:16;;;;;;;12.00;6.20;;;1.00;62.50;;;;;;5058622;28;20024;-86
2021/04/09 05:07:42;;;;;;;10.68;6.32;;;0.90;62.60;;;;;;5059458;28;20036;-87
2021/04/09 05:10:09;;;;;;;14.35;6.72;;;0.80;62.60;;;;;;5059660;28;20396;-86
2021/04/09 05:12:35;;;;;;;13.20;6.22;;;0.80;62.80;;;;;;5059413;28;20036;-84
2021/04/09 05:15:01;;;;;;;11.40;6.22;;;0.80;62.90;;;;;;5067107;28;20029;-86
2021/04/09 05:17:27;;;;;;;11.93;6.72;;;0.90;63.00;;;;;;5056279;28;20409;-86
2021/04/09 05:19:52;;;;;;;11.57;6.38;;;0.90;63.00;;;;;;5059342;28;20462;-86
2021/04/09 05:22:18;;;;;;;12.35;6.72;;;0.90;62.90;;;;;;5056929;28;20758;-86
2021/04/09 05:28:06;;;;;;;12.20;5.97;;;1.00;63.00;;;;;;5052881;28;20027;-86
2021/04/09 05:30:32;;;;;;;10.43;6.30;;;0.90;62.80;;;;;;5044546;28;20029;-86
2021/04/09 05:32:57;;;;;;;11.57;6.28;;;1.00;62.90;;;;;;5052501;28;20028;-85
2021/04/09 05:35:25;;;;;;;13.25;6.45;;;1.00;63.00;;;;;;5058438;28;20020;-86
2021/04/09 05:37:51;;;;;;;12.27;6.43;;;1.00;63.00;;;;;;5057859;28;20102;-86
2021/04/09 05:40:17;;;;;;;11.35;6.32;;;1.00;63.00;;;;;;5052941;28;20390;-87
2021/04/09 05:42:43;;;;;;;9.95;5.90;;;1.10;63.00;;;;;;5054213;28;20475;-86
2021/04/09 05:45:09;;;;;;;11.20;6.38;;;1.10;63.00;;;;;;5050378;28;20082;-86
2021/04/09 05:47:35;;;;;;;9.45;6.10;;;1.10;63.10;;;;;;5048405;28;20086;-86
2021/04/09 05:50:01;;;;;;;12.02;6.50;;;1.20;63.10;;;;;;5057433;28;20025;-85
2021/04/09 05:52:26;;;;;;;12.88;6.60;;;1.30;63.20;;;;;;5046862;28;20037;-86
2021/04/09 05:54:52;;;;;;;16.83;6.88;;;1.30;63.20;;;;;;5058233;28;20421;-85
2021/04/09 05:57:17;;;;;;;10.18;6.25;;;1.40;63.20;;;;;;5073782;28;20032;-84
2021/04/09 05:59:44;;;;;;;11.85;6.65;;;1.50;63.10;;;;;;5053544;28;20024;-86
2021/04/09 06:02:09;;;;;;;13.13;6.50;;;1.50;63.00;;;;;;5057788;28;20088;-86
2021/04/09 06:04:35;;;;;;;13.18;6.72;;;1.50;63.00;;;;;;5058381;28;20455;-86
2021/04/09 06:07:00;;;;;;;12.15;6.55;;;1.50;63.10;;;;;;5065988;28;20033;-85
2021/04/09 06:09:26;;;;;;;16.55;5.82;;;1.50;63.20;;;;;;5038193;28;20052;-84
2021/04/09 06:11:52;;;;;;;11.85;6.40;;;1.50;63.10;;;;;;5038529;28;20044;-87
2021/04/09 06:14:18;;;;;;;9.73;5.97;;;1.50;63.10;;;;;;5040646;28;20052;-87
2021/04/09 06:16:44;;;;;;;14.95;6.60;;;1.60;63.30;;;;;;5051197;28;20032;-87
2021/04/09 06:19:10;;;;;;;13.70;7.15;;;1.60;63.40;;;;;;5037736;28;20025;-87
2021/04/09 06:21:35;;;;;;;12.75;6.40;;;1.60;63.50;;;;;;5047427;28;20111;-88
2021/04/09 06:24:02;;;;;;;11.70;6.25;;;1.70;63.40;;;;;;5021068;28;20067;-87
2021/04/09 06:26:29;;;;;;;10.68;6.38;;;1.80;63.50;;;;;;5020656;28;20032;-86
2021/04/09 06:28:55;;;;;;;10.05;6.03;;;1.90;63.60;;;;;;5059451;28;20544;-88
2021/04/09 06:31:21;;;;;;;31.30;15.10;;;2.10;63.30;;;;;;5038468;28;20025;-86
2021/04/09 06:33:47;;;;;;;20.40;11.10;;;2.30;63.20;;;;;;5037276;28;20033;-88
2021/04/09 06:36:12;;;;;;;10.10;6.28;;;2.40;63.10;;;;;;5048316;28;20032;-88
2021/04/09 06:38:38;;;;;;;11.60;6.32;;;2.60;63.00;;;;;;5058268;28;20024;-88
2021/04/09 06:41:04;;;;;;;8.75;5.70;;;2.70;62.90;;;;;;5049356;28;20028;-87
2021/04/09 06:43:30;;;;;;;11.60;5.85;;;2.90;62.80;;;;;;5070699;28;20030;-87
2021/04/09 06:45:55;;;;;;;13.73;5.88;;;3.00;62.60;;;;;;5060463;28;20020;-87
2021/04/09 06:48:21;;;;;;;9.45;5.75;;;3.20;62.50;;;;;;5054036;28;20052;-87
2021/04/09 06:50:46;;;;;;;9.50;5.70;;;3.40;62.40;;;;;;5054728;28;20559;-87
2021/04/09 06:53:13;;;;;;;17.30;8.98;;;3.60;62.30;;;;;;5058302;28;20052;-87
2021/04/09 06:55:42;;;;;;;44.53;19.25;;;3.90;62.40;;;;;;5057205;28;20405;-88
2021/04/09 06:58:14;;;;;;;17.88;8.88;;;4.10;62.10;;;;;;5043837;28;20021;-88
2021/04/09 07:00:40;;;;;;;16.20;8.02;;;4.40;61.70;;;;;;5054887;28;20020;-87
2021/04/09 07:03:08;;;;;;;10.45;6.07;;;4.60;61.30;;;;;;5033169;28;20090;-87
2021/04/09 07:05:34;;;;;;;8.43;5.43;;;4.90;61.10;;;;;;5037601;28;20059;-87
2021/04/09 07:08:00;;;;;;;10.90;5.93;;;5.20;60.90;;;;;;5037658;28;20028;-88
2021/04/09 07:10:26;;;;;;;11.20;5.47;;;5.60;60.70;;;;;;5038351;28;20111;-87
2021/04/09 07:13:06;;;;;;;12.82;5.60;;;5.80;60.10;;;;;;5039540;28;20029;-87
2021/04/09 07:15:40;;;;;;;12.07;5.80;;;6.00;59.70;;;;;;5031629;28;20032;-87
2021/04/09 07:18:07;;;;;;;7.47;4.65;;;6.20;59.60;;;;;;5037526;28;20029;-88
2021/04/09 07:20:34;;;;;;;8.63;4.75;;;6.50;59.70;;;;;;5028505;28;20005;-87
2021/04/09 07:23:02;;;;;;;10.63;5.60;;;6.80;59.60;;;;;;5039677;28;20028;-87
2021/04/09 07:25:38;;;;;;;9.65;4.80;;;7.20;59.10;;;;;;5038196;28;20029;-88
2021/04/09 07:28:23;;;;;;;9.82;4.63;;;7.40;58.50;;;;;;5044706;28;21354;-88
2021/04/09 07:30:53;;;;;;;9.32;4.15;;;7.70;58.50;;;;;;5043399;28;20447;-88
2021/04/09 07:33:26;;;;;;;8.02;4.65;;;8.00;58.40;;;;;;5046382;28;20324;-88
2021/04/09 07:35:59;;;;;;;12.60;5.63;;;8.40;58.40;;;;;;5046275;28;20017;-88
2021/04/09 07:38:26;;;;;;;;;;;8.80;58.20;;;;;;5054320;28;20035;-88
2021/04/09 07:41:03;;;;;;;6.85;4.03;;;9.20;58.30;;;;;;5054534;28;19963;-86
2021/04/09 07:43:30;;;;;;;7.72;4.00;;;9.30;56.20;;;;;;5035220;28;20028;-87
2021/04/09 07:45:58;;;;;;;5.95;3.83;;;9.40;56.10;;;;;;5038586;28;20040;-88
2021/04/09 07:48:37;;;;;;;6.35;4.20;;;9.70;56.60;;;;;;5036070;28;20518;-87
2021/04/09 07:51:06;;;;;;;7.93;3.75;;;10.00;56.10;;;;;;5050141;28;20128;-88
2021/04/09 07:53:31;;;;;;;6.50;3.90;;;10.30;55.60;;;;;;5044999;28;20040;-87
2021/04/09 07:56:06;;;;;;;9.38;4.20;;;10.50;54.90;;;;;;5052427;28;20028;-87
2021/04/09 07:58:32;;;;;;;5.63;3.85;;;10.60;53.60;;;;;;5052845;28;20024;-87
2021/04/09 08:00:58;;;;;;;7.97;3.78;;;10.70;53.70;;;;;;5043108;28;20106;-85
2021/04/09 08:03:38;;;;;;;7.30;3.42;;;10.80;53.30;;;;;;5070767;28;20032;-87
2021/04/09 08:06:21;;;;;;;8.25;3.60;;;10.80;53.10;;;;;;5065035;28;20655;-87
2021/04/09 08:08:47;;;;;;;6.43;3.38;;;11.00;53.40;;;;;;5043483;28;20028;-86
2021/04/09 08:11:35;;;;;;;5.40;2.95;;;11.10;52.00;;;;;;5066808;28;20025;-87
2021/04/09 08:14:11;;;;;;;6.82;3.42;;;11.20;50.90;;;;;;5053683;28;20561;-87
2021/04/09 08:16:38;;;;;;;5.35;3.42;;;11.20;51.40;;;;;;5037217;28;20115;-87
2021/04/09 08:19:11;;;;;;;6.30;4.07;;;11.40;51.70;;;;;;5042790;28;20052;-86
2021/04/09 08:21:40;;;;;;;4.82;3.25;;;11.50;51.40;;;;;;5050249;28;20043;-88
2021/04/09 08:24:08;;;;;;;7.40;3.88;;;11.70;51.30;;;;;;5043887;28;20507;-88
2021/04/09 08:26:35;;;;;;;8.02;3.58;;;12.00;51.00;;;;;;5032923;28;20025;-87
2021/04/09 08:29:03;;;;;;;4.40;3.63;;;12.20;50.40;;;;;;5038341;28;20127;-86
2021/04/09 08:31:29;;;;;;;8.75;3.22;;;12.40;50.10;;;;;;5048116;28;20025;-87
2021/04/09 08:33:55;;;;;;;7.32;3.15;;;12.50;48.70;;;;;;5033979;28;20025;-87
2021/04/09 08:36:22;;;;;;;4.60;3.30;;;12.60;48.90;;;;;;5032408;28;20118;-87
2021/04/09 08:38:48;;;;;;;7.53;3.20;;;12.80;47.60;;;;;;5052794;28;20028;-87
2021/04/09 08:41:15;;;;;;;3.95;2.90;;;13.00;47.20;;;;;;5034620;28;20029;-87
2021/04/09 08:43:41;;;;;;;4.28;3.15;;;13.30;45.60;;;;;;5038363;28;20025;-87
2021/04/09 08:46:08;;;;;;;4.95;2.83;;;13.50;45.20;;;;;;5055308;28;20383;-87
2021/04/09 08:48:36;;;;;;;3.40;3.00;;;13.70;44.30;;;;;;5043677;28;20032;-87
2021/04/09 08:51:03;;;;;;;4.18;2.80;;;14.00;44.20;;;;;;5034139;28;20033;-88
2021/04/09 08:53:30;;;;;;;6.18;3.30;;;14.40;44.40;;;;;;5053256;28;20033;-89
2021/04/09 08:55:56;;;;;;;5.55;3.33;;;14.90;42.40;;;;;;5035780;28;20482;-87
2021/04/09 08:58:21;;;;;;;4.68;2.90;;;15.30;41.70;;;;;;5051534;28;20035;-87
2021/04/09 09:00:49;;;;;;;4.80;2.78;;;15.50;41.00;;;;;;5037824;28;20021;-87
2021/04/09 09:03:29;;;;;;;4.30;2.40;;;15.60;39.70;;;;;;5035574;28;20021;-88
2021/04/09 09:09:28;;;;;;;3.47;2.20;;;16.30;40.00;;;;;;5071266;28;20040;-87
2021/04/09 09:12:00;;;;;;;3.90;2.50;;;16.70;39.80;;;;;;5038403;28;20040;-86
2021/04/09 09:14:40;;;;;;;3.75;2.67;;;17.10;38.30;;;;;;5050742;28;20017;-87
2021/04/09 09:17:18;;;;;;;5.85;2.42;;;17.50;37.60;;;;;;5038547;28;20029;-86
2021/04/09 09:19:46;;;;;;;4.00;2.40;;;18.00;37.30;;;;;;5046356;28;20021;-87
2021/04/09 09:22:14;;;;;;;5.38;3.13;;;18.30;35.70;;;;;;5034982;28;20032;-87
2021/04/09 09:25:02;;;;;;;5.47;2.50;;;18.80;35.90;;;;;;5035527;28;20021;-87
2021/04/09 09:27:51;;;;;;;4.32;2.55;;;18.80;35.80;;;;;;5049822;28;20013;-87
2021/04/09 09:30:37;;;;;;;6.18;2.47;;;18.60;35.90;;;;;;5061797;28;20036;-87
2021/04/09 09:33:18;;;;;;;2.70;1.92;;;18.30;34.70;;;;;;5056348;28;20093;-87
2021/04/09 09:36:13;;;;;;;4.15;1.83;;;17.80;35.20;;;;;;5058205;28;20100;-88
2021/04/09 09:38:57;;;;;;;3.25;1.95;;;17.30;36.40;;;;;;5040769;28;20505;-87
2021/04/09 09:41:34;;;;;;;5.10;1.83;;;17.10;36.20;;;;;;5042931;28;20138;-87
2021/04/09 09:44:00;;;;;;;3.60;1.50;;;17.10;34.80;;;;;;5055588;28;20494;-88
2021/04/09 09:46:51;;;;;;;7.05;2.55;;;17.10;35.00;;;;;;5056007;28;20029;-87
2021/04/09 09:49:25;;;;;;;2.40;1.77;;;17.00;35.00;;;;;;5054117;28;20121;-87
2021/04/09 09:51:50;;;;;;;2.13;1.52;;;16.90;35.90;;;;;;5053781;28;20431;-87
2021/04/09 09:54:28;;;;;;;4.78;1.77;;;16.90;35.70;;;;;;5054974;28;20025;-87
2021/04/09 09:56:54;;;;;;;3.92;1.88;;;16.70;35.30;;;;;;5054542;28;20041;-87
2021/04/09 09:59:22;;;;;;;4.13;2.20;;;16.50;35.60;;;;;;5066564;28;20028;-87
2021/04/09 10:01:59;;;;;;;4.70;2.28;;;16.20;35.40;;;;;;5057127;28;20020;-87
2021/04/09 10:04:25;;;;;;;2.55;1.75;;;15.90;35.00;;;;;;5056832;28;20556;-87
2021/04/09 10:06:54;;;;;;;5.88;2.15;;;15.60;35.80;;;;;;5056028;28;20124;-87
2021/04/09 10:09:23;;;;;;;3.60;2.00;;;15.40;35.70;;;;;;5056922;28;20443;-87
2021/04/09 10:11:48;;;;;;;4.88;1.98;;;15.40;36.30;;;;;;5056768;28;20024;-87
2021/04/09 10:14:14;;;;;;;2.88;2.10;;;15.50;36.30;;;;;;5053613;28;20410;-87
2021/04/09 10:16:39;;;;;;;4.57;1.92;;;15.60;36.40;;;;;;5027777;28;20028;-86
2021/04/09 10:19:07;;;;;;;5.10;2.20;;;15.60;36.70;;;;;;5047420;28;20093;-87
2021/04/09 10:21:46;;;;;;;3.28;1.60;;;15.70;36.10;;;;;;5054888;28;20025;-87
2021/04/09 10:24:18;;;;;;;5.40;1.98;;;15.80;37.00;;;;;;5037343;28;20058;-87
2021/04/09 10:26:53;;;;;;;2.40;1.50;;;15.80;35.00;;;;;;5053018;28;20033;-87
2021/04/09 10:29:45;;;;;;;4.65;1.67;;;15.80;36.00;;;;;;5037581;28;20029;-87
2021/04/09 10:32:19;;;;;;;3.35;1.65;;;16.00;36.40;;;;;;5036146;28;20052;-87
2021/04/09 10:34:47;;;;;;;2.67;1.90;;;16.10;35.40;;;;;;5054469;28;20166;-87
2021/04/09 10:37:24;;;;;;;3.83;2.17;;;16.20;35.00;;;;;;5035914;28;20410;-87
2021/04/09 10:39:53;;;;;;;4.57;2.00;;;16.30;35.20;;;;;;5036386;28;20017;-87
2021/04/09 10:42:20;;;;;;;5.50;1.90;;;16.40;33.80;;;;;;5035855;28;20021;-87
2021/04/09 10:45:35;;;;;;;3.67;1.67;;;16.30;33.10;;;;;;5035622;28;20055;-87
2021/04/09 10:48:04;;;;;;;5.22;2.13;;;16.20;34.10;;;;;;5054121;28;20048;-87
2021/04/09 10:50:30;;;;;;;4.53;1.90;;;16.20;32.50;;;;;;5035033;28;20029;-87
2021/04/09 10:52:55;;;;;;;2.83;2.17;;;16.20;32.60;;;;;;5035361;28;20093;-86
2021/04/09 10:55:30;;;;;;;4.38;1.92;;;16.10;32.40;;;;;;5053334;28;20043;-87
2021/04/09 10:57:56;;;;;;;6.60;2.15;;;16.10;33.10;;;;;;5061011;28;20028;-87
2021/04/09 11:00:22;;;;;;;4.45;2.10;;;16.10;33.70;;;;;;5048767;28;20070;-87
2021/04/09 11:02:47;;;;;;;5.60;1.80;;;16.00;32.10;;;;;;5055309;28;20166;-87
2021/04/09 11:05:13;;;;;;;5.70;2.10;;;16.00;33.20;;;;;;5053654;28;20033;-87
2021/04/09 11:07:51;;;;;;;4.20;1.90;;;16.00;33.00;;;;;;5054379;28;20504;-87
2021/04/09 11:10:30;;;;;;;5.10;2.00;;;15.90;32.70;;;;;;5039091;28;20037;-88
2021/04/09 11:12:55;;;;;;;2.97;1.85;;;15.90;33.50;;;;;;5015357;28;20026;-88
2021/04/09 11:15:21;;;;;;;2.65;1.80;;;16.00;33.80;;;;;;5037642;28;20048;-87
2021/04/09 11:17:57;;;;;;;5.93;1.80;;;15.90;33.40;;;;;;5046660;28;20056;-87
2021/04/09 11:20:27;;;;;;;3.30;2.15;;;16.00;33.70;;;;;;5061586;28;20021;-87
2021/04/09 11:23:26;;;;;;;2.83;1.75;;;15.90;33.50;;;;;;5040911;28;20075;-87
2021/04/09 11:25:51;;;;;;;5.07;2.30;;;15.80;33.80;;;;;;5031776;28;20078;-87
2021/04/09 11:28:29;;;;;;;2.55;1.85;;;15.80;34.00;;;;;;5056247;28;20024;-87
2021/04/09 11:37:53;;;;;;;3.08;1.85;;;15.60;33.30;;;;;;5061658;28;20564;-88
2021/04/09 11:40:34;;;;;;;4.72;1.98;;;15.50;34.50;;;;;;5057614;28;20094;-88
2021/04/09 11:43:13;;;;;;;2.97;1.83;;;15.40;34.30;;;;;;5052514;28;20451;-87
2021/04/09 11:45:41;;;;;;;4.60;1.85;;;15.40;34.30;;;;;;5050123;28;20102;-87
2021/04/09 11:48:26;;;;;;;2.50;1.70;;;15.40;35.10;;;;;;5037172;28;20033;-88
2021/04/09 11:50:53;;;;;;;5.82;2.08;;;15.40;35.30;;;;;;5034955;28;20029;-88
2021/04/09 11:53:19;;;;;;;4.30;1.92;;;15.40;35.60;;;;;;5057273;28;20025;-89
2021/04/09 11:55:48;;;;;;;8.52;2.92;;;15.50;35.60;;;;;;5053879;28;20035;-87
2021/04/09 11:58:26;;;;;;;3.83;1.95;;;15.50;35.50;;;;;;5061778;28;20029;-87
2021/04/09 12:01:00;;;;;;;4.72;2.20;;;15.60;35.40;;;;;;5051153;28;20044;-89
2021/04/09 12:03:43;;;;;;;5.45;2.20;;;15.60;34.60;;;;;;5072224;28;20466;-88
2021/04/09 12:06:18;;;;;;;4.22;2.28;;;15.60;34.20;;;;;;5070289;28;20390;-88
2021/04/09 12:08:44;;;;;;;3.13;2.22;;;15.50;33.80;;;;;;5035782;28;20025;-87
2021/04/09 12:11:12;;;;;;;3.42;2.15;;;15.50;34.30;;;;;;5021146;28;20112;-87
2021/04/09 12:13:39;;;;;;;3.10;2.00;;;15.50;34.30;;;;;;5033698;28;20056;-87
2021/04/09 12:16:06;;;;;;;5.18;2.60;;;15.50;33.60;;;;;;5033553;28;20116;-88
2021/04/09 12:18:32;;;;;;;6.10;2.85;;;15.40;33.50;;;;;;5033271;28;20025;-90
2021/04/09 12:20:58;;;;;;;5.03;2.28;;;15.30;33.20;;;;;;5053917;28;20029;-87
2021/04/09 12:23:23;;;;;;;3.78;2.22;;;15.30;34.20;;;;;;5033764;28;20514;-89
2021/04/09 12:25:49;;;;;;;5.78;2.40;;;15.20;35.00;;;;;;5034176;28;20028;-88
2021/04/09 12:28:14;;;;;;;8.73;2.20;;;15.30;34.50;;;;;;5065158;28;20025;-88
2021/04/09 12:30:40;;;;;;;5.47;1.83;;;15.40;34.30;;;;;;5050062;28;20078;-88
2021/04/09 12:33:06;;;;;;;2.78;1.92;;;15.40;34.30;;;;;;5072045;28;20060;-88
2021/04/09 12:35:31;;;;;;;4.43;2.25;;;15.40;34.00;;;;;;5053317;28;20036;-88
2021/04/09 12:37:57;;;;;;;6.00;2.10;;;15.40;35.30;;;;;;5054429;28;20497;-88
2021/04/09 12:40:22;;;;;;;3.25;1.83;;;15.50;34.10;;;;;;5057833;28;20551;-87
2021/04/09 12:42:48;;;;;;;4.65;1.63;;;15.50;33.90;;;;;;5075953;28;20039;-87
2021/04/09 12:45:15;;;;;;;5.63;1.90;;;15.40;34.00;;;;;;5055562;28;20351;-88
2021/04/09 12:47:40;;;;;;;4.10;2.00;;;15.30;34.00;;;;;;5041783;28;20021;-88
2021/04/09 12:50:06;;;;;;;6.47;1.90;;;15.30;34.10;;;;;;5059380;28;20029;-88
2021/04/09 12:52:32;;;;;;;4.43;1.85;;;15.30;33.60;;;;;;5037928;28;20036;-87
2021/04/09 12:54:58;;;;;;;3.70;1.90;;;15.20;34.50;;;;;;5037226;28;20120;-88
2021/04/09 12:57:23;;;;;;;2.55;1.80;;;15.30;35.30;;;;;;5042620;28;20032;-87
2021/04/09 12:59:49;;;;;;;6.63;1.92;;;15.30;34.60;;;;;;5049081;28;20020;-88
2021/04/09 13:02:14;;;;;;;6.03;2.10;;;15.30;34.80;;;;;;5057302;28;20021;-87
2021/04/09 13:04:40;;;;;;;5.57;1.90;;;15.40;34.60;;;;;;5044374;28;20065;-88
2021/04/09 13:07:06;;;;;;;2.85;1.90;;;15.30;34.40;;;;;;5037591;28;20028;-88
2021/04/09 13:09:31;;;;;;;2.72;1.90;;;15.30;34.60;;;;;;5037183;28;20040;-87
2021/04/09 13:11:57;;;;;;;2.15;1.60;;;15.40;34.70;;;;;;5037067;28;20052;-88